createdAt,value
2023-01-02T00:00:24.392Z,13.09
2023-01-02T00:01:28.026Z,13.08
2023-01-02T00:02:32.857Z,13.08
2023-01-02T00:03:35.209Z,13.07
2023-01-02T00:04:37.477Z,13.06
2023-01-02T00:05:39.762Z,13.06
2023-01-02T00:06:41.954Z,13.05
2023-01-02T00:07:44.131Z,13.04
2023-01-02T00:08:46.336Z,13.04
2023-01-02T00:09:48.769Z,13.03
2023-01-02T00:10:53.083Z,13.03
2023-01-02T00:11:55.422Z,13.01
2023-01-02T00:12:57.625Z,13.01
2023-01-02T00:14:00.178Z,13.00
2023-01-02T00:15:04.504Z,12.99
2023-01-02T00:16:07.391Z,12.99
2023-01-02T00:17:09.604Z,12.99
2023-01-02T00:18:11.783Z,12.99
2023-01-02T00:19:13.929Z,12.99
2023-01-02T00:20:16.144Z,12.98
2023-01-02T00:21:19.018Z,12.97
2023-01-02T00:22:21.191Z,12.97
2023-01-02T00:23:23.473Z,12.97
2023-01-02T00:24:25.640Z,12.97
2023-01-02T00:25:27.929Z,12.96
2023-01-02T00:26:30.668Z,12.96
2023-01-02T00:27:32.920Z,12.96
2023-01-02T00:28:36.884Z,12.96
2023-01-02T00:29:39.024Z,12.96
2023-01-02T00:30:41.237Z,12.96
2023-01-02T00:31:43.464Z,12.95
2023-01-02T00:32:45.665Z,12.94
2023-01-02T00:33:47.855Z,12.93
2023-01-02T00:34:49.982Z,12.93
2023-01-02T00:35:52.151Z,12.92
2023-01-02T00:36:54.297Z,12.92
2023-01-02T00:37:56.499Z,12.93
2023-01-02T00:38:58.727Z,12.92
2023-01-02T00:40:00.963Z,12.93
2023-01-02T00:41:04.025Z,12.92
2023-01-02T00:42:06.265Z,12.91
2023-01-02T00:43:08.481Z,12.91
2023-01-02T00:44:10.645Z,12.91
2023-01-02T00:45:12.865Z,12.90
2023-01-02T00:46:16.042Z,12.89
2023-01-02T00:47:19.274Z,12.89
2023-01-02T00:48:22.400Z,12.90
2023-01-02T00:49:24.650Z,12.89
2023-01-02T00:50:26.851Z,12.88
2023-01-02T00:51:29.024Z,12.88
2023-01-02T00:52:31.237Z,12.88
2023-01-02T00:53:33.457Z,12.87
2023-01-02T00:54:35.639Z,12.87
2023-01-02T00:55:37.822Z,12.86
2023-01-02T00:56:40.001Z,12.84
2023-01-02T00:57:42.264Z,12.85
2023-01-02T00:58:44.435Z,12.84
2023-01-02T00:59:46.623Z,12.83
2023-01-02T01:00:50.279Z,12.83
2023-01-02T01:01:52.773Z,12.83
2023-01-02T01:02:59.893Z,12.84
2023-01-02T01:04:02.134Z,12.82
2023-01-02T01:05:07.518Z,12.82
2023-01-02T01:06:10.864Z,12.81
2023-01-02T01:07:13.356Z,12.81
2023-01-02T01:08:15.591Z,12.80
2023-01-02T01:09:18.267Z,12.79
2023-01-02T01:10:20.815Z,12.79
2023-01-02T01:11:22.956Z,12.78
2023-01-02T01:12:25.157Z,12.77
2023-01-02T01:13:27.342Z,12.77
2023-01-02T01:14:29.513Z,12.76
2023-01-02T01:15:33.630Z,12.75
2023-01-02T01:16:35.829Z,12.74
2023-01-02T01:17:38.508Z,12.74
2023-01-02T01:18:41.705Z,12.75
2023-01-02T01:19:43.957Z,12.74
2023-01-02T01:20:47.374Z,12.74
2023-01-02T01:21:49.590Z,12.74
2023-01-02T01:22:52.027Z,12.74
2023-01-02T01:23:55.896Z,12.73
2023-01-02T01:24:58.059Z,12.74
2023-01-02T01:26:04.006Z,12.73
2023-01-02T01:27:08.515Z,12.74
2023-01-02T01:28:10.674Z,12.73
2023-01-02T01:29:12.844Z,12.74
2023-01-02T01:30:15.211Z,12.74
2023-01-02T01:31:18.262Z,12.75
2023-01-02T01:32:20.528Z,12.73
2023-01-02T01:33:22.749Z,12.74
2023-01-02T01:34:24.904Z,12.74
2023-01-02T01:35:27.167Z,12.73
2023-01-02T01:36:29.411Z,12.74
2023-01-02T01:37:31.572Z,12.75
2023-01-02T01:38:34.618Z,12.74
2023-01-02T01:39:36.769Z,12.75
2023-01-02T01:40:40.125Z,12.75
2023-01-02T01:41:42.353Z,12.76
2023-01-02T01:42:44.532Z,12.77
2023-01-02T01:43:52.319Z,12.78
2023-01-02T01:44:55.452Z,12.77
2023-01-02T01:45:57.747Z,12.77
2023-01-02T01:46:59.933Z,12.78
2023-01-02T01:48:02.475Z,12.79
2023-01-02T01:49:13.488Z,12.79
2023-01-02T01:50:29.751Z,12.80
2023-01-02T01:51:36.510Z,12.81
2023-01-02T01:52:45.893Z,12.82
2023-01-02T01:53:52.621Z,12.81
2023-01-02T01:54:58.862Z,12.83
2023-01-02T01:56:05.308Z,12.82
2023-01-02T01:57:25.913Z,12.83
2023-01-02T01:58:42.025Z,12.84
2023-01-02T01:59:45.297Z,12.85
2023-01-02T02:00:48.230Z,12.86
2023-01-02T02:01:51.548Z,12.87
2023-01-02T02:03:01.131Z,12.86
2023-01-02T02:04:03.727Z,12.87
2023-01-02T02:05:09.591Z,12.88
2023-01-02T02:06:12.703Z,12.88
2023-01-02T02:07:16.126Z,12.90
2023-01-02T02:08:39.991Z,12.89
2023-01-02T02:09:52.873Z,12.91
2023-01-02T02:11:00.584Z,12.90
2023-01-02T02:12:06.692Z,12.91
2023-01-02T02:13:08.898Z,12.91
2023-01-02T02:14:11.132Z,12.91
2023-01-02T02:15:18.096Z,12.93
2023-01-02T02:16:26.935Z,12.92
2023-01-02T02:17:35.035Z,12.94
2023-01-02T02:18:51.496Z,12.94
2023-01-02T02:20:06.665Z,12.97
2023-01-02T02:21:20.745Z,12.97
2023-01-02T02:22:43.263Z,12.98
2023-01-02T02:23:59.170Z,12.98
2023-01-02T02:25:31.447Z,12.99
2023-01-02T02:27:20.087Z,13.01
2023-01-02T02:28:52.818Z,13.03
2023-01-02T02:30:14.274Z,13.04
2023-01-02T02:31:42.789Z,13.05
2023-01-02T02:33:03.895Z,13.05
2023-01-02T02:34:55.568Z,13.07
2023-01-02T02:36:51.166Z,13.08
2023-01-02T02:38:11.581Z,13.09
2023-01-02T02:39:33.749Z,13.10
2023-01-02T02:40:56.385Z,13.10
2023-01-02T02:42:31.701Z,13.10
2023-01-02T02:43:51.259Z,13.10
2023-01-02T02:45:14.699Z,13.12
2023-01-02T02:46:48.427Z,13.14
2023-01-02T02:48:01.439Z,13.14
2023-01-02T02:49:14.003Z,13.15
2023-01-02T02:50:29.549Z,13.16
2023-01-02T02:51:56.520Z,13.16
2023-01-02T02:53:09.213Z,13.17
2023-01-02T02:54:21.553Z,13.17
2023-01-02T02:55:30.437Z,13.18
2023-01-02T02:56:32.787Z,13.18
2023-01-02T02:57:36.207Z,13.18
2023-01-02T02:58:40.986Z,13.20
2023-01-02T02:59:43.485Z,13.21
2023-01-02T03:00:45.900Z,13.21
2023-01-02T03:01:48.591Z,13.21
2023-01-02T03:02:52.493Z,13.21
2023-01-02T03:03:54.828Z,13.24
2023-01-02T03:05:02.809Z,13.23
2023-01-02T03:06:12.731Z,13.25
2023-01-02T03:07:37.089Z,13.27
2023-01-02T03:08:47.744Z,13.27
2023-01-02T03:10:23.397Z,13.29
2023-01-02T03:11:39.556Z,13.28
2023-01-02T03:12:59.869Z,13.30
2023-01-02T03:14:07.780Z,13.31
2023-01-02T03:15:33.176Z,13.31
2023-01-02T03:16:43.329Z,13.33
2023-01-02T03:18:10.174Z,13.33
2023-01-02T03:19:23.257Z,13.34
2023-01-02T03:20:31.601Z,13.34
2023-01-02T03:21:46.472Z,13.35
2023-01-02T03:22:53.925Z,13.34
2023-01-02T03:24:00.818Z,13.36
2023-01-02T03:25:04.223Z,13.36
2023-01-02T03:26:07.287Z,13.36
2023-01-02T03:27:14.901Z,13.36
2023-01-02T03:28:20.329Z,13.36
2023-01-02T03:29:30.600Z,13.35
2023-01-02T03:30:35.705Z,13.34
2023-01-02T03:31:43.429Z,13.35
2023-01-02T03:33:00.308Z,13.34
2023-01-02T03:34:10.181Z,13.34
2023-01-02T03:35:18.157Z,13.36
2023-01-02T03:36:25.722Z,13.36
2023-01-02T03:37:32.969Z,13.37
2023-01-02T03:38:44.385Z,13.38
2023-01-02T03:39:54.826Z,13.36
2023-01-02T03:41:14.681Z,13.36
2023-01-02T03:42:25.358Z,13.36
2023-01-02T03:43:30.778Z,13.36
2023-01-02T03:44:43.586Z,13.36
2023-01-02T03:46:06.834Z,13.36
2023-01-02T03:47:49.229Z,13.36
2023-01-02T03:49:08.833Z,13.34
2023-01-02T03:50:20.933Z,13.35
2023-01-02T03:51:23.227Z,13.36
2023-01-02T03:52:26.273Z,13.34
2023-01-02T03:53:32.134Z,13.34
2023-01-02T03:54:34.718Z,13.34
2023-01-02T03:55:41.846Z,13.34
2023-01-02T03:57:03.760Z,13.34
2023-01-02T03:58:05.890Z,13.34
2023-01-02T03:59:33.954Z,13.32
2023-01-02T04:00:43.226Z,13.32
2023-01-02T04:01:55.210Z,13.34
2023-01-02T04:03:22.220Z,13.30
2023-01-02T04:04:50.263Z,13.31
2023-01-02T04:06:00.329Z,13.31
2023-01-02T04:07:11.486Z,13.32
2023-01-02T04:08:28.574Z,13.32
2023-01-02T04:09:33.841Z,13.33
2023-01-02T04:10:38.183Z,13.34
2023-01-02T04:11:44.633Z,13.34
2023-01-02T04:12:52.318Z,13.34
2023-01-02T04:14:00.482Z,13.36
2023-01-02T04:15:08.240Z,13.36
2023-01-02T04:16:17.662Z,13.37
2023-01-02T04:17:23.420Z,13.37
2023-01-02T04:18:29.693Z,13.39
2023-01-02T04:19:36.965Z,13.39
2023-01-02T04:20:46.467Z,13.41
2023-01-02T04:21:51.846Z,13.41
2023-01-02T04:23:03.155Z,13.41
2023-01-02T04:24:11.183Z,13.44
2023-01-02T04:25:17.144Z,13.43
2023-01-02T04:26:28.893Z,13.44
2023-01-02T04:27:38.359Z,13.44
2023-01-02T04:28:40.680Z,13.46
2023-01-02T04:29:42.881Z,13.46
2023-01-02T04:30:49.964Z,13.46
2023-01-02T04:32:03.680Z,13.46
2023-01-02T04:33:09.581Z,13.47
2023-01-02T04:34:15.463Z,13.48
2023-01-02T04:35:22.078Z,13.49
2023-01-02T04:36:24.748Z,13.49
2023-01-02T04:37:35.825Z,13.50
2023-01-02T04:38:38.682Z,13.49
2023-01-02T04:39:40.901Z,13.50
2023-01-02T04:40:43.492Z,13.50
2023-01-02T04:41:45.682Z,13.49
2023-01-02T04:42:47.864Z,13.50
2023-01-02T04:43:51.715Z,13.50
2023-01-02T04:44:53.915Z,13.48
2023-01-02T04:45:56.254Z,13.50
2023-01-02T04:46:58.473Z,13.48
2023-01-02T04:48:00.809Z,13.49
2023-01-02T04:49:03.167Z,13.48
2023-01-02T04:50:06.832Z,13.48
2023-01-02T04:51:08.990Z,13.50
2023-01-02T04:52:11.237Z,13.49
2023-01-02T04:53:13.460Z,13.49
2023-01-02T04:54:15.627Z,13.48
2023-01-02T04:55:17.851Z,13.48
2023-01-02T04:56:20.716Z,13.48
2023-01-02T04:57:24.414Z,13.47
2023-01-02T04:58:28.178Z,13.47
2023-01-02T04:59:30.317Z,13.47
2023-01-02T05:00:32.625Z,13.46
2023-01-02T05:01:34.959Z,13.46
2023-01-02T05:02:39.322Z,13.45
2023-01-02T05:03:43.439Z,13.45
2023-01-02T05:04:45.629Z,13.44
2023-01-02T05:05:47.977Z,13.44
2023-01-02T05:06:50.465Z,13.44
2023-01-02T05:07:52.634Z,13.44
2023-01-02T05:08:54.806Z,13.43
2023-01-02T05:09:57.201Z,13.41
2023-01-02T05:11:06.231Z,13.41
2023-01-02T05:12:08.370Z,13.41
2023-01-02T05:13:10.565Z,13.41
2023-01-02T05:14:12.772Z,13.40
2023-01-02T05:15:14.983Z,13.41
2023-01-02T05:16:17.290Z,13.39
2023-01-02T05:17:19.472Z,13.39
2023-01-02T05:18:21.610Z,13.40
2023-01-02T05:19:23.780Z,13.38
2023-01-02T05:20:25.954Z,13.41
2023-01-02T05:21:47.076Z,13.38
2023-01-02T05:23:08.201Z,13.39
2023-01-02T05:24:10.370Z,13.39
2023-01-02T05:25:12.533Z,13.39
2023-01-02T05:26:16.440Z,13.39
2023-01-02T05:27:18.705Z,13.38
2023-01-02T05:28:20.870Z,13.37
2023-01-02T05:29:25.633Z,13.37
2023-01-02T05:30:27.956Z,13.37
2023-01-02T05:31:30.569Z,13.36
2023-01-02T05:32:32.803Z,13.36
2023-01-02T05:33:35.079Z,13.33
2023-01-02T05:34:37.231Z,13.34
2023-01-02T05:35:39.393Z,13.32
2023-01-02T05:36:42.237Z,13.32
2023-01-02T05:37:44.425Z,13.30
2023-01-02T05:38:46.653Z,13.29
2023-01-02T05:39:49.075Z,13.28
2023-01-02T05:41:00.319Z,13.27
2023-01-02T05:42:02.545Z,13.27
2023-01-02T05:43:04.760Z,13.24
2023-01-02T05:44:10.999Z,13.24
2023-01-02T05:45:13.150Z,13.22
2023-01-02T05:46:17.735Z,13.20
2023-01-02T05:47:20.026Z,13.19
2023-01-02T05:48:22.174Z,13.18
2023-01-02T05:49:24.348Z,13.16
2023-01-02T05:50:26.528Z,13.17
2023-01-02T05:51:28.723Z,13.15
2023-01-02T05:52:30.906Z,13.13
2023-01-02T05:53:33.397Z,13.13
2023-01-02T05:54:35.562Z,13.11
2023-01-02T05:55:37.805Z,13.10
2023-01-02T05:56:40.003Z,13.09
2023-01-02T05:57:42.407Z,13.07
2023-01-02T05:58:47.063Z,13.07
2023-01-02T05:59:49.234Z,13.07
2023-01-02T06:00:51.463Z,13.06
2023-01-02T06:01:53.786Z,13.05
2023-01-02T06:02:56.527Z,13.04
2023-01-02T06:04:00.460Z,13.04
2023-01-02T06:05:02.697Z,13.03
2023-01-02T06:06:06.578Z,13.02
2023-01-02T06:07:08.770Z,13.00
2023-01-02T06:08:10.965Z,12.98
2023-01-02T06:09:15.053Z,12.98
2023-01-02T06:10:17.302Z,12.96
2023-01-02T06:11:19.708Z,12.95
2023-01-02T06:12:21.895Z,12.95
2023-01-02T06:13:24.139Z,12.93
2023-01-02T06:14:27.945Z,12.93
2023-01-02T06:15:31.122Z,12.92
2023-01-02T06:16:36.339Z,12.92
2023-01-02T06:17:38.656Z,12.91
2023-01-02T06:18:41.270Z,12.90
2023-01-02T06:19:50.194Z,12.88
2023-01-02T06:21:02.107Z,12.86
2023-01-02T06:22:04.282Z,12.86
2023-01-02T06:23:06.438Z,12.86
2023-01-02T06:24:09.955Z,12.82
2023-01-02T06:25:12.147Z,12.83
2023-01-02T06:26:18.452Z,12.84
2023-01-02T06:27:20.613Z,12.83
2023-01-02T06:28:22.790Z,12.82
2023-01-02T06:29:25.039Z,12.82
2023-01-02T06:30:27.241Z,12.82
2023-01-02T06:31:29.966Z,12.80
2023-01-02T06:32:32.302Z,12.77
2023-01-02T06:33:34.852Z,12.77
2023-01-02T06:34:39.423Z,12.77
2023-01-02T06:35:41.583Z,12.77
2023-01-02T06:36:43.802Z,12.77
2023-01-02T06:37:46.009Z,12.75
2023-01-02T06:38:48.260Z,12.73
2023-01-02T06:39:50.572Z,12.72
2023-01-02T06:40:54.666Z,12.71
2023-01-02T06:41:56.844Z,12.72
2023-01-02T06:43:00.331Z,12.68
2023-01-02T06:44:02.786Z,12.69
2023-01-02T06:45:05.621Z,12.67
2023-01-02T06:46:07.826Z,12.66
2023-01-02T06:47:10.059Z,12.64
2023-01-02T06:48:12.331Z,12.62
2023-01-02T06:49:14.579Z,12.62
2023-01-02T06:50:16.854Z,12.63
2023-01-02T06:51:21.628Z,12.63
2023-01-02T06:52:23.976Z,12.64
2023-01-02T06:53:27.394Z,12.63
2023-01-02T06:54:29.587Z,12.63
2023-01-02T06:55:31.780Z,12.62
2023-01-02T06:56:33.996Z,12.62
2023-01-02T06:57:36.215Z,12.61
2023-01-02T06:58:38.807Z,12.61
2023-01-02T06:59:41.133Z,12.60
2023-01-02T07:00:43.355Z,12.60
2023-01-02T07:01:45.701Z,12.60
2023-01-02T07:02:48.275Z,12.61
2023-01-02T07:03:50.767Z,12.59
2023-01-02T07:04:52.948Z,12.59
2023-01-02T07:06:02.969Z,12.59
2023-01-02T07:07:05.671Z,12.57
2023-01-02T07:08:08.387Z,12.54
2023-01-02T07:09:10.580Z,12.53
2023-01-02T07:10:12.824Z,12.53
2023-01-02T07:11:38.574Z,12.52
2023-01-02T07:12:40.780Z,12.50
2023-01-02T07:13:44.027Z,12.51
2023-01-02T07:14:46.297Z,12.50
2023-01-02T07:15:48.508Z,12.49
2023-01-02T07:16:51.594Z,12.48
2023-01-02T07:17:53.833Z,12.48
2023-01-02T07:18:58.549Z,12.46
2023-01-02T07:20:02.331Z,12.44
2023-01-02T07:21:06.441Z,12.40
2023-01-02T07:22:08.661Z,12.41
2023-01-02T07:23:10.820Z,12.39
2023-01-02T07:24:18.214Z,12.40
2023-01-02T07:25:21.915Z,12.37
2023-01-02T07:26:24.124Z,12.34
2023-01-02T07:27:26.291Z,12.33
2023-01-02T07:28:30.435Z,12.31
2023-01-02T07:29:32.636Z,12.28
2023-01-02T07:30:34.845Z,12.24
2023-01-02T07:31:37.084Z,12.21
2023-01-02T07:32:39.350Z,12.19
2023-01-02T07:33:41.943Z,12.17
2023-01-02T07:34:44.189Z,12.15
2023-01-02T07:35:46.372Z,12.14
2023-01-02T07:36:48.533Z,12.13
2023-01-02T07:37:51.664Z,12.08
2023-01-02T07:38:55.470Z,12.07
2023-01-02T07:39:57.723Z,12.07
2023-01-02T07:40:59.930Z,12.02
2023-01-02T07:42:02.240Z,12.00
2023-01-02T07:43:04.518Z,11.97
2023-01-02T07:44:06.831Z,11.95
2023-01-02T07:45:09.468Z,11.94
2023-01-02T07:46:15.415Z,11.92
2023-01-02T07:47:20.463Z,11.95
2023-01-02T07:48:22.657Z,11.90
2023-01-02T07:49:27.837Z,11.88
2023-01-02T07:50:30.750Z,11.87
2023-01-02T07:51:33.426Z,11.84
2023-01-02T07:52:35.620Z,11.85
2023-01-02T07:53:38.713Z,11.83
2023-01-02T07:54:40.871Z,11.83
2023-01-02T07:55:43.081Z,11.82
2023-01-02T07:56:45.278Z,11.79
2023-01-02T07:57:48.391Z,11.80
2023-01-02T07:58:51.040Z,11.77
2023-01-02T07:59:53.205Z,11.76
2023-01-02T08:01:01.467Z,11.75
2023-01-02T08:02:10.861Z,11.73
2023-01-02T08:03:16.155Z,11.72
2023-01-02T08:04:18.932Z,11.70
2023-01-02T08:05:22.384Z,11.70
2023-01-02T08:06:24.643Z,11.66
2023-01-02T08:07:26.823Z,11.64
2023-01-02T08:08:29.038Z,11.63
2023-01-02T08:09:31.295Z,11.61
2023-01-02T08:10:33.478Z,11.59
2023-01-02T08:11:35.757Z,11.59
2023-01-02T08:12:38.239Z,11.57
2023-01-02T08:13:41.103Z,11.55
2023-01-02T08:14:43.301Z,11.54
2023-01-02T08:15:46.494Z,11.49
2023-01-02T08:16:49.232Z,11.49
2023-01-02T08:17:51.701Z,11.47
2023-01-02T08:18:57.481Z,11.46
2023-01-02T08:20:06.816Z,11.41
2023-01-02T08:21:10.862Z,11.41
2023-01-02T08:22:13.099Z,11.40
2023-01-02T08:23:16.181Z,11.40
2023-01-02T08:24:18.407Z,11.38
2023-01-02T08:25:20.621Z,11.35
2023-01-02T08:26:24.148Z,11.36
2023-01-02T08:27:28.653Z,11.34
2023-01-02T08:28:31.323Z,11.31
2023-01-02T08:29:33.493Z,11.32
2023-01-02T08:30:35.733Z,11.30
2023-01-02T08:31:44.070Z,11.29
2023-01-02T08:32:46.545Z,11.27
2023-01-02T08:33:48.896Z,11.27
2023-01-02T08:34:51.090Z,11.26
2023-01-02T08:35:53.943Z,11.27
2023-01-02T08:36:56.118Z,11.25
2023-01-02T08:37:58.340Z,11.24
2023-01-02T08:39:00.577Z,11.22
2023-01-02T08:40:02.931Z,11.21
2023-01-02T08:41:05.422Z,11.19
2023-01-02T08:42:10.936Z,11.21
2023-01-02T08:43:13.130Z,11.20
2023-01-02T08:44:16.355Z,11.19
2023-01-02T08:45:18.828Z,11.17
2023-01-02T08:46:21.019Z,11.17
2023-01-02T08:47:23.212Z,11.17
2023-01-02T08:48:25.411Z,11.12
2023-01-02T08:49:27.610Z,11.14
2023-01-02T08:50:29.811Z,11.13
2023-01-02T08:51:31.999Z,11.14
2023-01-02T08:52:34.288Z,11.14
2023-01-02T08:53:36.577Z,11.13
2023-01-02T08:54:38.792Z,11.14
2023-01-02T08:55:40.981Z,11.13
2023-01-02T08:56:43.165Z,11.11
2023-01-02T08:57:45.368Z,11.10
2023-01-02T08:59:02.833Z,11.11
2023-01-02T09:00:05.852Z,11.10
2023-01-02T09:01:08.067Z,11.10
2023-01-02T09:02:15.117Z,11.09
2023-01-02T09:03:17.532Z,11.10
2023-01-02T09:04:20.757Z,11.09
2023-01-02T09:05:23.030Z,11.08
2023-01-02T09:06:27.609Z,11.09
2023-01-02T09:07:32.550Z,11.09
2023-01-02T09:08:34.731Z,11.10
2023-01-02T09:09:37.046Z,11.10
2023-01-02T09:10:39.212Z,11.08
2023-01-02T09:11:51.089Z,11.09
2023-01-02T09:12:53.537Z,11.09
2023-01-02T09:13:57.920Z,11.08
2023-01-02T09:15:00.111Z,11.09
2023-01-02T09:16:02.386Z,11.09
2023-01-02T09:17:04.765Z,11.08
2023-01-02T09:18:06.947Z,11.08
2023-01-02T09:19:09.985Z,11.07
2023-01-02T09:20:12.223Z,11.07
2023-01-02T09:21:17.343Z,11.08
2023-01-02T09:22:19.541Z,11.08
2023-01-02T09:23:21.810Z,11.09
2023-01-02T09:24:23.981Z,11.09
2023-01-02T09:25:26.147Z,11.11
2023-01-02T09:26:28.386Z,11.11
2023-01-02T09:27:30.579Z,11.12
2023-01-02T09:28:34.679Z,11.10
2023-01-02T09:29:36.887Z,11.10
2023-01-02T09:30:39.200Z,11.10
2023-01-02T09:31:41.927Z,11.11
2023-01-02T09:32:44.087Z,11.11
2023-01-02T09:33:47.477Z,11.11
2023-01-02T09:34:50.524Z,11.11
2023-01-02T09:35:52.745Z,11.10
2023-01-02T09:36:54.965Z,11.10
2023-01-02T09:37:57.239Z,11.12
2023-01-02T09:39:01.211Z,11.12
2023-01-02T09:40:03.726Z,11.13
2023-01-02T09:41:15.533Z,11.13
2023-01-02T09:42:17.963Z,11.14
2023-01-02T09:43:25.958Z,11.14
2023-01-02T09:44:45.965Z,11.14
2023-01-02T09:45:49.835Z,11.13
2023-01-02T09:46:52.013Z,11.14
2023-01-02T09:47:59.064Z,11.15
2023-01-02T09:49:02.707Z,11.16
2023-01-02T09:50:11.399Z,11.15
2023-01-02T09:51:13.666Z,11.17
2023-01-02T09:52:33.914Z,11.16
2023-01-02T09:53:36.158Z,11.16
2023-01-02T09:54:39.595Z,11.17
2023-01-02T09:56:21.124Z,11.19
2023-01-02T09:57:27.687Z,11.18
2023-01-02T09:58:50.772Z,11.20
2023-01-02T10:00:01.444Z,11.20
2023-01-02T10:01:05.613Z,11.19
2023-01-02T10:02:43.200Z,11.17
2023-01-02T10:03:57.423Z,11.18
2023-01-02T10:04:59.563Z,11.17
2023-01-02T10:06:06.119Z,11.16
2023-01-02T10:07:11.094Z,11.16
2023-01-02T10:08:41.319Z,11.17
2023-01-02T10:10:00.854Z,11.16
2023-01-02T10:11:29.257Z,11.16
2023-01-02T10:13:00.842Z,11.16
2023-01-02T10:14:19.399Z,11.16
2023-01-02T10:15:27.358Z,11.18
2023-01-02T10:16:36.585Z,11.18
2023-01-02T10:17:46.251Z,11.18
2023-01-02T10:18:55.150Z,11.18
2023-01-02T10:20:06.664Z,11.18
2023-01-02T10:21:15.135Z,11.18
2023-01-02T10:22:27.525Z,11.18
2023-01-02T10:23:42.652Z,11.18
2023-01-02T10:24:56.183Z,11.19
2023-01-02T10:26:02.507Z,11.19
2023-01-02T10:27:11.745Z,11.21
2023-01-02T10:28:24.816Z,11.23
2023-01-02T10:29:43.345Z,11.24
2023-01-02T10:30:55.569Z,11.24
2023-01-02T10:32:04.301Z,11.24
2023-01-02T10:33:18.627Z,11.26
2023-01-02T10:34:23.983Z,11.26
2023-01-02T10:35:37.561Z,11.28
2023-01-02T10:36:41.811Z,11.29
2023-01-02T10:37:44.090Z,11.28
2023-01-02T10:38:46.380Z,11.29
2023-01-02T10:39:50.573Z,11.29
2023-01-02T10:40:53.919Z,11.31
2023-01-02T10:41:58.789Z,11.31
2023-01-02T10:43:02.263Z,11.31
2023-01-02T10:44:10.742Z,11.30
2023-01-02T10:45:16.572Z,11.31
2023-01-02T10:46:18.809Z,11.31
2023-01-02T10:47:36.077Z,11.33
2023-01-02T10:48:38.782Z,11.35
2023-01-02T10:49:43.375Z,11.34
2023-01-02T10:50:50.281Z,11.34
2023-01-02T10:52:05.896Z,11.34
2023-01-02T10:53:19.198Z,11.33
2023-01-02T10:54:21.480Z,11.35
2023-01-02T10:55:34.157Z,11.36
2023-01-02T10:56:39.727Z,11.38
2023-01-02T10:57:46.134Z,11.38
2023-01-02T10:58:50.536Z,11.39
2023-01-02T10:59:58.746Z,11.39
2023-01-02T11:01:19.504Z,11.39
2023-01-02T11:02:49.460Z,11.38
2023-01-02T11:03:54.509Z,11.40
2023-01-02T11:05:01.252Z,11.38
2023-01-02T11:06:25.650Z,11.39
2023-01-02T11:07:26.869Z,11.39
2023-01-02T11:08:41.046Z,11.40
2023-01-02T11:09:55.762Z,11.39
2023-01-02T11:11:01.677Z,11.41
2023-01-02T11:12:12.637Z,11.39
2023-01-02T11:13:20.803Z,11.39
2023-01-02T11:14:34.773Z,11.37
2023-01-02T11:16:13.221Z,11.37
2023-01-02T11:17:20.130Z,11.36
2023-01-02T11:18:26.625Z,11.36
2023-01-02T11:19:30.041Z,11.36
2023-01-02T11:20:37.480Z,11.37
2023-01-02T11:21:41.637Z,11.37
2023-01-02T11:22:43.795Z,11.37
2023-01-02T11:23:46.129Z,11.38
2023-01-02T11:25:00.735Z,11.39
2023-01-02T11:26:08.113Z,11.41
2023-01-02T11:27:10.340Z,11.43
2023-01-02T11:28:20.705Z,11.42
2023-01-02T11:29:30.567Z,11.43
2023-01-02T11:30:36.476Z,11.43
2023-01-02T11:31:44.813Z,11.43
2023-01-02T11:32:47.010Z,11.45
2023-01-02T11:33:49.634Z,11.45
2023-01-02T11:35:00.862Z,11.45
2023-01-02T11:36:02.969Z,11.46
2023-01-02T11:37:13.936Z,11.47
2023-01-02T11:38:29.674Z,11.46
2023-01-02T11:39:34.849Z,11.48
2023-01-02T11:40:37.075Z,11.48
2023-01-02T11:42:07.343Z,11.49
2023-01-02T11:43:30.365Z,11.48
2023-01-02T11:44:38.294Z,11.50
2023-01-02T11:45:43.153Z,11.50
2023-01-02T11:46:46.988Z,11.50
2023-01-02T11:47:57.324Z,11.48
2023-01-02T11:49:04.490Z,11.50
2023-01-02T11:50:11.769Z,11.49
2023-01-02T11:51:18.927Z,11.51
2023-01-02T11:52:26.446Z,11.52
2023-01-02T11:53:37.389Z,11.54
2023-01-02T11:54:49.992Z,11.54
2023-01-02T11:56:17.838Z,11.54
2023-01-02T11:57:34.952Z,11.54
2023-01-02T11:58:47.528Z,11.56
2023-01-02T11:59:53.878Z,11.58
2023-01-02T12:01:04.564Z,11.57
2023-01-02T12:02:20.512Z,11.57
2023-01-02T12:03:30.513Z,11.59
2023-01-02T12:04:33.110Z,11.60
2023-01-02T12:05:53.141Z,11.61
2023-01-02T12:07:20.567Z,11.63
2023-01-02T12:08:44.566Z,11.64
2023-01-02T12:10:21.258Z,11.66
2023-01-02T12:11:40.923Z,11.68
2023-01-02T12:12:52.170Z,11.67
2023-01-02T12:14:10.126Z,11.69
2023-01-02T12:15:12.261Z,11.71
2023-01-02T12:16:47.342Z,11.74
2023-01-02T12:18:08.923Z,11.74
2023-01-02T12:19:44.806Z,11.75
2023-01-02T12:20:57.414Z,11.78
2023-01-02T12:22:50.082Z,11.77
2023-01-02T12:24:04.273Z,11.81
2023-01-02T12:25:34.350Z,11.82
2023-01-02T12:26:59.326Z,11.83
2023-01-02T12:28:30.750Z,11.83
2023-01-02T12:29:47.261Z,11.87
2023-01-02T12:31:22.633Z,11.86
2023-01-02T12:32:38.452Z,11.88
2023-01-02T12:33:46.016Z,11.90
2023-01-02T12:35:06.488Z,11.90
2023-01-02T12:36:24.790Z,11.91
2023-01-02T12:37:49.440Z,11.91
2023-01-02T12:39:06.890Z,11.92
2023-01-02T12:40:27.896Z,11.94
2023-01-02T12:42:01.041Z,11.95
2023-01-02T12:43:12.657Z,11.98
2023-01-02T12:44:34.163Z,11.97
2023-01-02T12:45:47.459Z,11.98
2023-01-02T12:46:49.628Z,12.00
2023-01-02T12:48:13.709Z,12.01
2023-01-02T12:49:33.912Z,12.02
2023-01-02T12:51:01.266Z,12.04
2023-01-02T12:52:18.180Z,12.02
2023-01-02T12:54:19.065Z,12.03
2023-01-02T12:55:46.021Z,12.06
2023-01-02T12:57:07.264Z,12.08
2023-01-02T12:58:37.691Z,12.08
2023-01-02T13:00:00.484Z,12.08
2023-01-02T13:01:27.539Z,12.09
2023-01-02T13:02:53.914Z,12.08
2023-01-02T13:04:23.334Z,12.09
2023-01-02T13:05:32.288Z,12.10
2023-01-02T13:07:00.423Z,12.11
2023-01-02T13:08:18.078Z,12.11
2023-01-02T13:09:41.379Z,12.10
2023-01-02T13:10:43.919Z,12.10
2023-01-02T13:11:56.175Z,12.12
2023-01-02T13:13:00.888Z,12.12
2023-01-02T13:14:06.867Z,12.13
2023-01-02T13:15:18.227Z,12.13
2023-01-02T13:16:25.127Z,12.13
2023-01-02T13:17:49.536Z,12.14
2023-01-02T13:19:18.865Z,12.13
2023-01-02T13:20:53.332Z,12.15
2023-01-02T13:22:21.010Z,12.16
2023-01-02T13:23:41.078Z,12.17
2023-01-02T13:24:44.644Z,12.17
2023-01-02T13:25:51.685Z,12.18
2023-01-02T13:26:56.493Z,12.19
2023-01-02T13:28:00.461Z,12.19
2023-01-02T13:29:21.681Z,12.19
2023-01-02T13:30:57.579Z,12.20
2023-01-02T13:32:09.859Z,12.21
2023-01-02T13:33:34.002Z,12.22
2023-01-02T13:34:41.077Z,12.22
2023-01-02T13:35:43.248Z,12.23
2023-01-02T13:36:46.832Z,12.23
2023-01-02T13:37:52.756Z,12.24
2023-01-02T13:39:12.943Z,12.25
2023-01-02T13:40:27.565Z,12.25
2023-01-02T13:41:31.789Z,12.26
2023-01-02T13:42:55.199Z,12.24
2023-01-02T13:44:01.499Z,12.25
2023-01-02T13:45:11.048Z,12.25
2023-01-02T13:46:53.404Z,12.25
2023-01-02T13:47:50.539Z,12.25
2023-01-02T13:48:59.654Z,12.26
2023-01-02T13:50:32.600Z,12.27
2023-01-02T13:51:36.514Z,12.27
2023-01-02T13:52:58.515Z,12.28
2023-01-02T13:54:20.712Z,12.26
2023-01-02T13:55:33.941Z,12.27
2023-01-02T13:57:15.954Z,12.27
2023-01-02T13:58:18.424Z,12.29
2023-01-02T13:59:41.625Z,12.28
2023-01-02T14:00:53.404Z,12.27
2023-01-02T14:02:14.928Z,12.28
2023-01-02T14:03:23.506Z,12.29
2023-01-02T14:04:29.469Z,12.27
2023-01-02T14:06:01.078Z,12.26
2023-01-02T14:07:25.195Z,12.27
2023-01-02T14:08:27.378Z,12.29
2023-01-02T14:09:29.639Z,12.28
2023-01-02T14:10:34.639Z,12.28
2023-01-02T14:11:55.266Z,12.27
2023-01-02T14:13:05.150Z,12.25
2023-01-02T14:14:13.078Z,12.27
2023-01-02T14:15:22.315Z,12.26
2023-01-02T14:16:49.865Z,12.26
2023-01-02T14:18:01.326Z,12.27
2023-01-02T14:19:12.602Z,12.27
2023-01-02T14:20:17.439Z,12.27
2023-01-02T14:21:20.321Z,12.27
2023-01-02T14:22:22.843Z,12.27
2023-01-02T14:23:30.109Z,12.27
2023-01-02T14:24:40.233Z,12.27
2023-01-02T14:25:48.996Z,12.28
2023-01-02T14:26:57.909Z,12.27
2023-01-02T14:28:05.668Z,12.28
2023-01-02T14:29:16.579Z,12.31
2023-01-02T14:30:25.437Z,12.29
2023-01-02T14:31:33.728Z,12.29
2023-01-02T14:32:46.473Z,12.30
2023-01-02T14:33:55.789Z,12.31
2023-01-02T14:34:58.662Z,12.31
2023-01-02T14:36:08.345Z,12.32
2023-01-02T14:37:13.765Z,12.32